createdAt,value
2022-10-10T00:02:40.537Z,1012.28
2022-10-10T00:17:40.366Z,1012.21
2022-10-10T00:32:41.098Z,1012.17
2022-10-10T00:47:40.485Z,1012.13
2022-10-10T01:02:40.553Z,1011.95
2022-10-10T01:17:41.085Z,1011.79
2022-10-10T01:32:40.504Z,1011.75
2022-10-10T01:47:40.504Z,1011.50
2022-10-10T02:02:40.591Z,1011.38
2022-10-10T02:17:40.717Z,1011.28
2022-10-10T02:32:40.725Z,1011.25
2022-10-10T02:47:40.625Z,1011.13
2022-10-10T03:02:40.719Z,1010.96
2022-10-10T03:17:40.683Z,1010.79
2022-10-10T03:32:40.630Z,1010.79
2022-10-10T03:47:40.810Z,1010.82
2022-10-10T04:02:40.943Z,1010.79
2022-10-10T04:17:40.825Z,1010.61
2022-10-10T04:32:40.787Z,1010.67
2022-10-10T04:47:40.985Z,1010.58
2022-10-10T05:02:40.929Z,1010.66
2022-10-10T05:17:41.049Z,1010.63
2022-10-10T05:32:41.072Z,1010.58
2022-10-10T05:47:41.108Z,1010.54
2022-10-10T06:02:41.083Z,1010.73
2022-10-10T06:17:41.278Z,1010.68
2022-10-10T06:32:41.089Z,1010.87
2022-10-10T06:47:41.310Z,1010.89
2022-10-10T07:02:41.301Z,1010.89
2022-10-10T07:17:41.266Z,1010.93
2022-10-10T07:32:41.375Z,1011.03
2022-10-10T07:47:41.267Z,1011.07
2022-10-10T08:02:41.417Z,1011.11
2022-10-10T08:17:41.489Z,1011.28
2022-10-10T08:32:41.481Z,1011.25
2022-10-10T08:47:41.422Z,1011.16
2022-10-10T09:02:53.814Z,1011.44
2022-10-10T09:17:41.475Z,1011.34
2022-10-10T09:32:41.541Z,1011.39
2022-10-10T09:47:41.705Z,1011.58
2022-10-10T10:02:41.534Z,1011.50
2022-10-10T10:17:41.601Z,1011.48
2022-10-10T10:32:41.699Z,1011.54
2022-10-10T10:47:41.641Z,1011.58
2022-10-10T11:02:57.510Z,1011.53
2022-10-10T11:17:41.888Z,1011.55
2022-10-10T11:32:41.888Z,1011.58
2022-10-10T11:47:42.065Z,1011.46
2022-10-10T12:02:41.899Z,1011.48
2022-10-10T12:17:42.083Z,1011.63
2022-10-10T12:32:42.194Z,1011.57
2022-10-10T12:48:03.975Z,1011.57
2022-10-10T13:02:41.969Z,1011.53
2022-10-10T13:17:42.331Z,1011.54
2022-10-10T13:32:42.170Z,1011.70
2022-10-10T13:47:42.141Z,1011.70
2022-10-10T14:02:42.273Z,1011.98
2022-10-10T14:17:42.301Z,1012.15
2022-10-10T14:32:42.286Z,1012.35
2022-10-10T14:47:42.427Z,1012.68
2022-10-10T15:02:45.594Z,1012.81
2022-10-10T15:17:42.330Z,1012.98
2022-10-10T15:32:42.898Z,1013.20
2022-10-10T15:47:46.405Z,1013.57
2022-10-10T16:02:42.484Z,1013.80
2022-10-10T16:17:42.585Z,1014.24
2022-10-10T16:32:42.915Z,1014.46
2022-10-10T16:47:42.532Z,1014.78
2022-10-10T17:02:42.662Z,1015.10
2022-10-10T17:17:42.821Z,1015.44
2022-10-10T17:32:42.806Z,1015.98
2022-10-10T17:47:42.781Z,1016.40
2022-10-10T18:02:42.827Z,1016.83
2022-10-10T18:17:42.808Z,1017.09
2022-10-10T18:32:42.922Z,1017.36
2022-10-10T18:47:42.765Z,1017.59
2022-10-10T19:02:42.795Z,1017.77
2022-10-10T19:17:43.131Z,1017.88
2022-10-10T19:32:43.115Z,1018.08
2022-10-10T19:47:43.374Z,1018.38
2022-10-10T20:02:43.186Z,1018.57
2022-10-10T20:17:43.164Z,1018.81
2022-10-10T20:32:43.302Z,1019.01
2022-10-10T20:47:43.351Z,1019.22
2022-10-10T21:02:43.218Z,1019.38
2022-10-10T21:17:43.162Z,1019.51
2022-10-10T21:32:43.499Z,1019.71
2022-10-10T21:47:43.206Z,1019.80
2022-10-10T22:02:43.418Z,1019.95
2022-10-10T22:17:43.524Z,1020.02
2022-10-10T22:32:43.367Z,1020.19
2022-10-10T22:47:43.375Z,1020.28
2022-10-10T23:02:43.545Z,1020.35
2022-10-10T23:17:44.499Z,1020.39
2022-10-10T23:32:43.543Z,1020.49
2022-10-10T23:47:43.490Z,1020.53
